Time;durP1;ratioP1;P1;durP2;ratioP2;P2;SDS_P1;SDS_P2;PMS_P1;PMS_P2;Temp;Humidity;BMP_temperature;BMP_pressure;BME280_temperature;BME280_humidity;BME280_pressure;Samples;Min_cycle;Max_cycle;Signal;HPM_P1;HPM_P2
2022/08/08 00:01:37;;;;;;;4.93;2.97;;;20.30;58.40;;;;;;5051692;28;20041;-67
2022/08/08 00:04:31;;;;;;;6.03;3.10;;;20.30;58.90;;;;;;5050551;28;20029;-67
2022/08/08 00:07:24;;;;;;;5.70;2.70;;;20.30;58.40;;;;;;5045527;28;20041;-67
2022/08/08 00:10:01;;;;;;;4.50;3.15;;;20.20;58.80;;;;;;5039921;28;20036;-66
2022/08/08 00:12:32;;;;;;;3.83;2.50;;;20.20;58.90;;;;;;5050305;28;20033;-66
2022/08/08 00:15:08;;;;;;;4.22;2.80;;;20.20;59.10;;;;;;5048098;28;20032;-66
2022/08/08 00:17:58;;;;;;;4.70;3.00;;;20.20;58.90;;;;;;5051041;28;20029;-66
2022/08/08 00:20:51;;;;;;;4.43;3.00;;;20.20;58.80;;;;;;5050222;28;20147;-66
2022/08/08 00:23:24;;;;;;;4.22;2.80;;;20.20;59.10;;;;;;5035202;28;20021;-66
2022/08/08 00:25:55;;;;;;;5.30;2.97;;;20.20;58.90;;;;;;5051074;28;20025;-66
2022/08/08 00:28:28;;;;;;;5.18;3.35;;;20.10;58.60;;;;;;5033036;28;20157;-66
2022/08/08 00:30:57;;;;;;;5.28;2.78;;;20.10;59.00;;;;;;5050223;28;20032;-66
2022/08/08 00:33:27;;;;;;;5.88;3.00;;;20.10;58.90;;;;;;5050826;28;20032;-66
2022/08/08 00:36:22;;;;;;;5.88;2.75;;;20.10;59.10;;;;;;5050123;28;20033;-67
2022/08/08 00:39:09;;;;;;;4.35;2.78;;;20.10;58.90;;;;;;5048056;28;20044;-67
2022/08/08 00:41:54;;;;;;;5.80;3.25;;;20.00;59.10;;;;;;5050237;28;20038;-67
2022/08/08 00:45:07;;;;;;;4.25;2.75;;;20.00;59.10;;;;;;5049859;28;20078;-67
2022/08/08 00:48:10;;;;;;;4.45;3.05;;;20.00;59.50;;;;;;5014894;28;20033;-67
2022/08/08 00:50:58;;;;;;;4.70;2.58;;;20.00;59.50;;;;;;5050679;28;20029;-66
2022/08/08 00:54:01;;;;;;;5.32;2.83;;;20.00;59.60;;;;;;5026109;28;20060;-67
2022/08/08 00:56:59;;;;;;;5.18;2.70;;;19.90;59.30;;;;;;5050271;28;20032;-67
2022/08/08 01:00:04;;;;;;;5.75;2.67;;;19.80;59.10;;;;;;5054343;28;20037;-67
2022/08/08 01:02:59;;;;;;;7.53;2.97;;;19.80;59.80;;;;;;5051841;28;20506;-68
2022/08/08 01:05:53;;;;;;;5.00;2.75;;;19.80;59.50;;;;;;5053488;28;20057;-67
2022/08/08 01:08:37;;;;;;;5.87;2.87;;;19.80;60.10;;;;;;5035565;28;20476;-68
2022/08/08 01:11:24;;;;;;;5.63;2.60;;;19.70;60.20;;;;;;5038214;28;20021;-67
2022/08/08 01:14:20;;;;;;;4.88;2.53;;;19.70;60.40;;;;;;5054248;28;20021;-67
2022/08/08 01:17:11;;;;;;;5.13;2.95;;;19.70;60.60;;;;;;5054435;28;20071;-67
2022/08/08 01:19:48;;;;;;;4.90;2.70;;;19.70;60.50;;;;;;5044928;28;20033;-67
2022/08/08 01:22:37;;;;;;;4.63;2.63;;;19.60;60.50;;;;;;5054564;28;20041;-66
2022/08/08 01:25:54;;;;;;;4.90;3.08;;;19.60;60.60;;;;;;5045570;28;20095;-67
2022/08/08 01:28:33;;;;;;;4.95;2.80;;;19.60;60.60;;;;;;5054129;28;20025;-67
2022/08/08 01:31:02;;;;;;;5.85;3.25;;;19.60;60.60;;;;;;5052624;28;20025;-67
2022/08/08 01:33:27;;;;;;;4.80;2.78;;;19.60;60.80;;;;;;5052892;28;20028;-67
2022/08/08 01:36:08;;;;;;;5.75;2.78;;;19.50;60.80;;;;;;5037162;28;20120;-66
2022/08/08 01:39:06;;;;;;;4.80;2.65;;;19.50;60.90;;;;;;5053472;28;20037;-67
2022/08/08 01:41:45;;;;;;;4.50;2.70;;;19.50;61.00;;;;;;5016298;28;20032;-66
2022/08/08 01:44:39;;;;;;;4.63;2.92;;;19.50;61.90;;;;;;5055095;28;20029;-67
2022/08/08 01:47:21;;;;;;;4.65;2.72;;;19.40;61.10;;;;;;5053769;28;20032;-66
2022/08/08 01:50:25;;;;;;;4.28;2.78;;;19.40;61.40;;;;;;5053519;28;20053;-67
2022/08/08 01:53:28;;;;;;;4.15;2.63;;;19.40;61.10;;;;;;5019127;28;20032;-67
2022/08/08 01:56:25;;;;;;;4.97;3.20;;;19.30;61.00;;;;;;5053580;28;20040;-67
2022/08/08 01:59:06;;;;;;;4.57;2.92;;;19.30;61.50;;;;;;5053381;28;20508;-67
2022/08/08 02:02:07;;;;;;;7.28;2.63;;;19.30;61.40;;;;;;5053063;28;20025;-67
2022/08/08 02:04:45;;;;;;;4.97;2.78;;;19.30;61.20;;;;;;5051828;28;20033;-67
2022/08/08 02:07:25;;;;;;;3.78;2.65;;;19.30;61.20;;;;;;5052812;28;20103;-66
2022/08/08 02:10:06;;;;;;;3.00;2.42;;;19.30;61.40;;;;;;5053076;28;20060;-67
2022/08/08 02:13:18;;;;;;;4.35;2.90;;;19.30;61.40;;;;;;5053128;28;20056;-67
2022/08/08 02:16:04;;;;;;;4.55;3.00;;;19.20;61.20;;;;;;4971976;28;20035;-67
2022/08/08 02:18:30;;;;;;;4.93;2.83;;;19.20;61.20;;;;;;4990092;28;20030;-67
2022/08/08 02:24:13;;;;;;;4.88;2.83;;;19.20;61.60;;;;;;5014827;28;20049;-67
2022/08/08 02:27:03;;;;;;;4.40;3.03;;;19.10;61.90;;;;;;5053767;28;20025;-67
2022/08/08 02:29:54;;;;;;;3.88;2.63;;;19.10;61.90;;;;;;5051475;28;20025;-67
2022/08/08 02:33:05;;;;;;;4.90;2.88;;;19.10;62.20;;;;;;5053039;28;20423;-67
2022/08/08 02:35:36;;;;;;;4.53;2.60;;;19.10;62.10;;;;;;5048910;28;20116;-67
2022/08/08 02:38:38;;;;;;;4.03;2.67;;;19.10;62.10;;;;;;5052302;28;20040;-67
2022/08/08 02:41:22;;;;;;;5.25;3.05;;;19.10;62.70;;;;;;5052284;28;20021;-67
2022/08/08 02:43:53;;;;;;;4.20;2.70;;;19.10;62.10;;;;;;5051623;28;20029;-67
2022/08/08 02:46:51;;;;;;;4.10;2.88;;;19.10;62.20;;;;;;5052883;28;20032;-68
2022/08/08 02:50:00;;;;;;;4.68;2.92;;;19.00;62.40;;;;;;5047891;28;20070;-67
2022/08/08 02:53:01;;;;;;;5.95;2.88;;;19.00;62.40;;;;;;5052534;28;20043;-67
2022/08/08 02:55:42;;;;;;;6.50;2.80;;;19.00;62.30;;;;;;5030191;28;20033;-67
2022/08/08 02:58:41;;;;;;;4.85;2.47;;;19.00;62.30;;;;;;5053026;28;20039;-67
2022/08/08 03:01:15;;;;;;;4.32;2.80;;;19.00;62.30;;;;;;5051665;28;20029;-67
2022/08/08 03:04:06;;;;;;;4.18;3.10;;;19.00;62.50;;;;;;5051413;28;20029;-66
2022/08/08 03:06:49;;;;;;;4.20;2.65;;;18.90;62.60;;;;;;5051521;28;20041;-66
2022/08/08 03:09:48;;;;;;;4.97;2.67;;;18.90;62.60;;;;;;5051262;28;20110;-66
2022/08/08 03:12:55;;;;;;;5.55;3.00;;;18.90;62.50;;;;;;5050525;28;20503;-66
2022/08/08 03:15:47;;;;;;;3.92;2.70;;;18.80;62.60;;;;;;5051664;28;20036;-65
2022/08/08 03:18:31;;;;;;;6.10;2.65;;;18.80;62.90;;;;;;5041824;28;20431;-66
2022/08/08 03:20:57;;;;;;;5.60;2.87;;;18.80;62.80;;;;;;5032940;28;20067;-66
2022/08/08 03:23:23;;;;;;;6.03;3.05;;;18.80;63.00;;;;;;5051755;28;20742;-66
2022/08/08 03:25:50;;;;;;;4.28;2.80;;;18.80;63.10;;;;;;5051624;28;20025;-66
2022/08/08 03:28:39;;;;;;;8.05;3.00;;;18.80;63.30;;;;;;5052957;28;20112;-66
2022/08/08 03:33:51;;;;;;;4.32;2.70;;;18.80;63.30;;;;;;5051379;28;20028;-66
2022/08/08 03:36:17;;;;;;;4.55;3.05;;;18.80;63.40;;;;;;5052265;28;20033;-66
2022/08/08 03:38:51;;;;;;;3.92;3.33;;;18.80;63.70;;;;;;5050906;28;20037;-66
2022/08/08 03:41:17;;;;;;;5.10;3.10;;;18.70;63.90;;;;;;5051303;28;20126;-66
2022/08/08 03:43:57;;;;;;;5.15;3.28;;;18.70;63.90;;;;;;5050622;28;20036;-66
2022/08/08 03:46:23;;;;;;;5.18;2.75;;;18.70;63.90;;;;;;5052488;28;20365;-66
2022/08/08 03:48:56;;;;;;;4.30;3.08;;;18.70;63.90;;;;;;5040231;28;20093;-67
2022/08/08 03:51:23;;;;;;;5.97;2.80;;;18.70;63.90;;;;;;5052060;28;20025;-66
2022/08/08 03:53:50;;;;;;;5.25;2.88;;;18.70;64.00;;;;;;5049989;28;20025;-66
2022/08/08 03:56:15;;;;;;;5.55;2.95;;;18.70;64.10;;;;;;5051703;28;20025;-66
2022/08/08 03:58:48;;;;;;;5.82;3.20;;;18.70;64.10;;;;;;5050274;28;20403;-65
2022/08/08 04:01:13;;;;;;;4.22;3.10;;;18.60;64.30;;;;;;5050802;28;20025;-66
2022/08/08 04:03:39;;;;;;;4.72;3.00;;;18.60;64.30;;;;;;5040985;28;20488;-66
2022/08/08 04:06:06;;;;;;;3.95;2.72;;;18.60;64.20;;;;;;5050274;28;20057;-65
2022/08/08 04:08:35;;;;;;;4.80;3.30;;;18.60;64.00;;;;;;5048741;28;20029;-65
2022/08/08 04:11:02;;;;;;;4.95;3.05;;;18.60;64.50;;;;;;5050779;28;20048;-67
2022/08/08 04:13:28;;;;;;;6.97;3.13;;;18.60;64.60;;;;;;5050000;28;20035;-66
2022/08/08 04:15:53;;;;;;;4.25;2.80;;;18.60;64.70;;;;;;5051080;28;20029;-66
2022/08/08 04:18:19;;;;;;;4.93;2.85;;;18.60;64.90;;;;;;5051598;28;20033;-66
2022/08/08 04:20:44;;;;;;;5.63;3.10;;;18.60;65.10;;;;;;5049993;28;20037;-66
2022/08/08 04:23:10;;;;;;;5.15;3.05;;;18.60;65.10;;;;;;5051398;28;20033;-66
2022/08/08 04:25:35;;;;;;;7.00;3.22;;;18.60;65.00;;;;;;5049597;28;20027;-66
2022/08/08 04:28:01;;;;;;;5.10;2.60;;;18.60;65.00;;;;;;5048049;28;22403;-66
2022/08/08 04:30:27;;;;;;;5.55;2.70;;;18.60;65.30;;;;;;5049864;28;20499;-66
2022/08/08 04:32:52;;;;;;;4.28;2.60;;;18.60;65.10;;;;;;5051288;28;20365;-66
2022/08/08 04:35:18;;;;;;;4.30;2.60;;;18.60;65.30;;;;;;5049824;28;20021;-66
2022/08/08 04:37:44;;;;;;;6.40;3.25;;;18.60;65.70;;;;;;5048125;28;20021;-66
2022/08/08 04:40:10;;;;;;;7.43;3.55;;;18.60;65.60;;;;;;5045297;28;20040;-66
2022/08/08 04:42:36;;;;;;;5.18;2.95;;;18.60;65.60;;;;;;5051502;28;20029;-66
2022/08/08 04:45:03;;;;;;;5.53;2.80;;;18.60;65.90;;;;;;5050045;28;20039;-66
2022/08/08 04:47:29;;;;;;;7.38;3.15;;;18.60;65.90;;;;;;5049574;28;20037;-65
2022/08/08 04:49:55;;;;;;;6.28;2.85;;;18.60;65.80;;;;;;5050305;28;20036;-65
2022/08/08 04:52:21;;;;;;;5.80;3.10;;;18.60;65.70;;;;;;5050368;28;20314;-66
2022/08/08 04:54:46;;;;;;;4.50;3.10;;;18.60;65.50;;;;;;5050238;28;20075;-66
2022/08/08 04:57:12;;;;;;;6.95;3.40;;;18.50;65.30;;;;;;5049252;28;20033;-66
2022/08/08 04:59:39;;;;;;;4.35;2.95;;;18.50;65.50;;;;;;5050667;28;20060;-65
2022/08/08 05:02:04;;;;;;;5.68;3.55;;;18.50;65.40;;;;;;5049490;28;20445;-66
2022/08/08 05:04:30;;;;;;;5.63;3.15;;;18.50;65.50;;;;;;5050006;28;20104;-67
2022/08/08 05:06:56;;;;;;;5.43;3.28;;;18.60;65.50;;;;;;5049928;28;20033;-66
2022/08/08 05:09:21;;;;;;;6.53;3.10;;;18.60;65.90;;;;;;5042888;28;20040;-66
2022/08/08 05:11:48;;;;;;;4.60;3.00;;;18.60;66.00;;;;;;5050560;28;20051;-66
2022/08/08 05:14:14;;;;;;;4.18;2.72;;;18.60;66.10;;;;;;5049770;28;20090;-65
2022/08/08 05:16:41;;;;;;;5.30;2.97;;;18.70;65.90;;;;;;5051364;28;20036;-66
2022/08/08 05:19:11;;;;;;;5.97;3.13;;;18.70;66.20;;;;;;5048389;28;20037;-66
2022/08/08 05:21:39;;;;;;;4.75;2.90;;;18.80;66.30;;;;;;5051047;28;20453;-65
2022/08/08 05:24:06;;;;;;;4.57;2.95;;;18.80;66.20;;;;;;5049580;28;20036;-65
2022/08/08 05:26:32;;;;;;;4.72;2.97;;;18.80;66.20;;;;;;5051299;28;20021;-66
2022/08/08 05:28:57;;;;;;;6.00;3.20;;;18.80;66.30;;;;;;5049548;28;20418;-66
2022/08/08 05:31:23;;;;;;;4.10;2.80;;;18.90;66.50;;;;;;5050960;28;20469;-66
2022/08/08 05:33:49;;;;;;;3.85;2.58;;;18.90;66.80;;;;;;5048509;28;20032;-66
2022/08/08 05:36:15;;;;;;;6.25;3.28;;;19.00;66.50;;;;;;5050647;28;20029;-66
2022/08/08 05:38:50;;;;;;;5.80;2.90;;;19.00;66.30;;;;;;5053687;28;20064;-66
2022/08/08 05:41:24;;;;;;;5.70;2.90;;;19.00;66.50;;;;;;5053968;28;20029;-66
2022/08/08 05:43:59;;;;;;;6.03;2.90;;;19.10;66.40;;;;;;5052985;28;20026;-66
2022/08/08 05:46:26;;;;;;;7.20;3.53;;;19.10;66.50;;;;;;5054447;28;20029;-66
2022/08/08 05:48:53;;;;;;;7.05;3.65;;;19.10;66.60;;;;;;5051724;28;20055;-66
2022/08/08 05:51:20;;;;;;;5.95;3.08;;;19.10;66.30;;;;;;5054626;28;20063;-66
2022/08/08 05:53:46;;;;;;;4.18;3.00;;;19.10;66.40;;;;;;5052186;28;20071;-67
2022/08/08 05:56:13;;;;;;;6.35;3.13;;;19.10;66.60;;;;;;5054599;28;20029;-67
2022/08/08 05:58:41;;;;;;;7.07;2.92;;;19.20;66.20;;;;;;5052932;28;20462;-67
2022/08/08 06:01:11;;;;;;;5.60;3.20;;;19.30;66.60;;;;;;5053023;28;20476;-66
2022/08/08 06:03:42;;;;;;;5.43;2.92;;;19.30;67.20;;;;;;5051654;28;20096;-66
2022/08/08 06:06:08;;;;;;;6.97;3.30;;;19.30;66.90;;;;;;5053749;28;20041;-67
2022/08/08 06:08:47;;;;;;;5.50;3.10;;;19.40;66.60;;;;;;5052669;28;20464;-66
2022/08/08 06:11:13;;;;;;;4.68;3.15;;;19.50;67.00;;;;;;5053420;28;20120;-66
2022/08/08 06:13:38;;;;;;;5.80;3.10;;;19.50;66.90;;;;;;5053157;28;20119;-67
2022/08/08 06:16:04;;;;;;;6.22;3.30;;;19.50;66.80;;;;;;5051231;28;20033;-67
2022/08/08 06:18:30;;;;;;;6.85;2.67;;;19.60;66.90;;;;;;5034147;28;20036;-67
2022/08/08 06:20:59;;;;;;;11.13;2.85;;;19.60;66.90;;;;;;5043331;28;20376;-73
2022/08/08 06:23:26;;;;;;;7.07;3.70;;;19.70;66.80;;;;;;5047813;28;20036;-68
2022/08/08 06:26:03;;;;;;;6.50;3.33;;;19.80;66.50;;;;;;5049141;28;20029;-67
2022/08/08 06:28:33;;;;;;;5.47;3.38;;;19.80;66.50;;;;;;5050128;28;20025;-69
2022/08/08 06:31:03;;;;;;;7.07;3.25;;;19.90;66.60;;;;;;5045133;28;20033;-69
2022/08/08 06:33:48;;;;;;;5.25;3.88;;;19.90;66.20;;;;;;5050867;28;20029;-69
2022/08/08 06:36:39;;;;;;;5.75;3.40;;;20.00;65.90;;;;;;5065848;28;20029;-69
2022/08/08 06:39:08;;;;;;;7.10;3.28;;;20.00;66.40;;;;;;5049852;28;20159;-69
2022/08/08 06:41:40;;;;;;;5.93;3.30;;;20.00;65.90;;;;;;5038099;28;20109;-70
2022/08/08 06:44:10;;;;;;;5.53;3.05;;;20.10;65.80;;;;;;5050852;28;20036;-68
2022/08/08 06:46:37;;;;;;;6.53;3.70;;;20.10;66.00;;;;;;5050767;28;20027;-69
2022/08/08 06:49:03;;;;;;;8.18;3.25;;;20.10;66.00;;;;;;5050754;28;20045;-69
2022/08/08 06:51:29;;;;;;;5.43;3.15;;;20.10;65.50;;;;;;5050020;28;20029;-69
2022/08/08 06:53:55;;;;;;;7.00;3.20;;;20.20;65.80;;;;;;5047805;28;20476;-68
2022/08/08 06:56:23;;;;;;;5.43;2.97;;;20.30;66.40;;;;;;5047169;28;20028;-69
2022/08/08 06:58:48;;;;;;;7.15;3.22;;;20.40;66.00;;;;;;5050870;28;20491;-68
2022/08/08 07:01:15;;;;;;;6.25;3.50;;;20.40;66.00;;;;;;5050783;28;20057;-68
2022/08/08 07:03:53;;;;;;;7.13;4.15;;;20.50;66.00;;;;;;5050579;28;20043;-68
2022/08/08 07:06:22;;;;;;;6.80;4.65;;;20.60;65.70;;;;;;5050425;28;20044;-68
2022/08/08 07:08:52;;;;;;;10.57;4.97;;;20.60;66.20;;;;;;5050523;28;20028;-68
2022/08/08 07:11:21;;;;;;;14.07;5.45;;;20.60;66.20;;;;;;5050956;28;20488;-69
2022/08/08 07:13:52;;;;;;;7.13;4.38;;;20.70;66.10;;;;;;5049255;28;20028;-69
2022/08/08 07:16:26;;;;;;;6.32;3.97;;;20.80;66.10;;;;;;5050629;28;20021;-69
2022/08/08 07:19:08;;;;;;;6.68;3.83;;;20.80;65.30;;;;;;5049634;28;20068;-69
2022/08/08 07:21:48;;;;;;;7.53;3.08;;;20.90;65.30;;;;;;5051160;28;20461;-69
2022/08/08 07:24:23;;;;;;;5.18;3.15;;;21.00;65.50;;;;;;5050662;28;20048;-70
2022/08/08 07:26:51;;;;;;;7.57;3.28;;;21.10;63.60;;;;;;5050488;28;20108;-68
2022/08/08 07:29:18;;;;;;;6.65;3.22;;;21.20;63.10;;;;;;5051946;28;20036;-70
2022/08/08 07:31:44;;;;;;;6.15;3.38;;;21.20;62.80;;;;;;5049502;28;20032;-70
2022/08/08 07:34:11;;;;;;;7.03;3.30;;;21.30;62.30;;;;;;5051688;28;20032;-68
2022/08/08 07:36:37;;;;;;;7.03;3.40;;;21.30;62.00;;;;;;5050388;28;20048;-69
2022/08/08 07:39:05;;;;;;;4.80;3.38;;;21.40;62.30;;;;;;5051421;28;20103;-68
2022/08/08 07:41:31;;;;;;;6.32;3.20;;;21.50;61.70;;;;;;5049128;28;20140;-69
2022/08/08 07:43:59;;;;;;;5.97;3.55;;;21.50;61.70;;;;;;5051309;28;20029;-68
2022/08/08 07:46:25;;;;;;;6.28;2.95;;;21.60;61.60;;;;;;5050257;28;20056;-68
2022/08/08 07:48:51;;;;;;;6.18;3.63;;;21.60;61.00;;;;;;5032400;28;20451;-68
2022/08/08 07:51:17;;;;;;;7.15;3.30;;;21.80;60.60;;;;;;5049905;28;20025;-68
2022/08/08 07:53:58;;;;;;;5.55;2.95;;;21.80;60.00;;;;;;5048431;28;20033;-68
2022/08/08 07:56:26;;;;;;;6.43;3.50;;;21.90;60.00;;;;;;5049456;28;20032;-69
2022/08/08 07:58:52;;;;;;;5.65;3.17;;;21.90;59.80;;;;;;5037633;28;20052;-68
2022/08/08 08:01:25;;;;;;;6.80;3.45;;;22.00;59.40;;;;;;5050846;28;20017;-68
2022/08/08 08:03:54;;;;;;;8.27;3.00;;;22.10;59.60;;;;;;5048475;28;20032;-68
2022/08/08 08:06:21;;;;;;;6.40;3.10;;;22.10;59.10;;;;;;5050900;28;20065;-68
2022/08/08 08:09:07;;;;;;;5.75;3.10;;;22.20;58.60;;;;;;5051084;28;20450;-69
2022/08/08 08:11:41;;;;;;;4.45;2.83;;;22.30;58.80;;;;;;5051287;28;20021;-69
2022/08/08 08:14:08;;;;;;;4.55;2.72;;;22.40;59.30;;;;;;5050123;28;20021;-68
2022/08/08 08:16:37;;;;;;;8.38;3.60;;;22.50;58.60;;;;;;5050615;28;20187;-69
2022/08/08 08:19:11;;;;;;;6.53;3.00;;;22.60;58.40;;;;;;5050709;28;20040;-68
2022/08/08 08:21:37;;;;;;;5.13;3.20;;;22.70;57.90;;;;;;5049478;28;20029;-68
2022/08/08 08:24:04;;;;;;;4.82;2.88;;;22.80;57.10;;;;;;5047095;28;20037;-69
2022/08/08 08:26:29;;;;;;;7.03;2.90;;;22.80;57.10;;;;;;5049213;28;20507;-68
2022/08/08 08:28:55;;;;;;;4.68;3.10;;;22.90;57.00;;;;;;5046779;28;20028;-68
2022/08/08 08:31:24;;;;;;;5.07;2.47;;;23.00;56.20;;;;;;5050645;28;20032;-68
2022/08/08 08:33:50;;;;;;;6.95;3.53;;;23.10;56.30;;;;;;5050067;28;20418;-68
2022/08/08 08:36:17;;;;;;;5.95;3.08;;;23.20;55.20;;;;;;5047678;28;20024;-68
2022/08/08 08:38:43;;;;;;;7.93;2.95;;;23.30;55.80;;;;;;5050320;28;20365;-68
2022/08/08 08:41:13;;;;;;;6.63;3.05;;;23.40;55.10;;;;;;5050545;28;20044;-68
2022/08/08 08:43:39;;;;;;;5.88;2.85;;;23.50;54.50;;;;;;5049481;28;20025;-68
2022/08/08 08:46:10;;;;;;;3.88;2.50;;;23.50;54.10;;;;;;5031742;28;20037;-68
2022/08/08 08:48:37;;;;;;;4.75;2.47;;;23.60;53.70;;;;;;5051197;28;20483;-68
2022/08/08 08:51:04;;;;;;;5.82;2.47;;;23.60;53.40;;;;;;5048068;28;20060;-67
2022/08/08 08:53:59;;;;;;;4.22;2.40;;;23.70;53.10;;;;;;5031948;28;20107;-68
2022/08/08 08:56:27;;;;;;;3.15;2.25;;;23.70;52.30;;;;;;5046832;28;20112;-68
2022/08/08 08:58:55;;;;;;;3.97;2.55;;;23.80;52.20;;;;;;5048216;28;20032;-68
2022/08/08 09:01:24;;;;;;;3.42;1.83;;;23.80;52.20;;;;;;5048362;28;20032;-67
2022/08/08 09:03:51;;;;;;;4.32;2.10;;;23.90;51.80;;;;;;5049219;28;20025;-69
2022/08/08 09:06:27;;;;;;;4.03;2.30;;;23.90;51.80;;;;;;5048727;28;20175;-69
2022/08/08 09:09:03;;;;;;;4.18;2.33;;;24.00;52.20;;;;;;5048827;28;20052;-68
2022/08/08 09:11:33;;;;;;;2.90;2.20;;;24.10;51.40;;;;;;5048150;28;20372;-67
2022/08/08 09:14:00;;;;;;;4.97;2.13;;;24.20;52.00;;;;;;5053128;28;20025;-69
2022/08/08 09:16:27;;;;;;;4.30;2.05;;;24.20;51.80;;;;;;5053166;28;20384;-67
2022/08/08 09:18:53;;;;;;;4.10;2.20;;;24.30;50.60;;;;;;5052997;28;20033;-66
2022/08/08 09:21:20;;;;;;;3.60;2.13;;;24.20;50.40;;;;;;5056372;28;20135;-67
2022/08/08 09:23:46;;;;;;;5.38;2.22;;;24.30;50.60;;;;;;5051171;28;20043;-67
2022/08/08 09:26:39;;;;;;;5.05;2.53;;;24.40;51.20;;;;;;5047340;28;20034;-66
2022/08/08 09:29:07;;;;;;;3.30;2.10;;;24.50;53.00;;;;;;5050555;28;20396;-66
2022/08/08 09:31:48;;;;;;;3.03;2.10;;;24.70;52.20;;;;;;5052344;28;20391;-66
2022/08/08 09:34:17;;;;;;;3.75;2.38;;;24.80;52.80;;;;;;5045179;28;20163;-66
2022/08/08 09:36:45;;;;;;;4.60;2.30;;;24.80;50.30;;;;;;5052768;28;20048;-66
2022/08/08 09:39:11;;;;;;;3.97;2.15;;;24.90;49.90;;;;;;5051752;28;20041;-67
2022/08/08 09:41:41;;;;;;;6.80;2.45;;;25.00;50.70;;;;;;5051037;28;20029;-66
2022/08/08 09:44:19;;;;;;;7.07;2.33;;;25.20;50.90;;;;;;5047977;28;20091;-67
2022/08/08 09:46:49;;;;;;;3.60;2.30;;;25.30;50.20;;;;;;5047061;28;20055;-66
2022/08/08 09:49:19;;;;;;;4.18;2.08;;;25.40;50.00;;;;;;5052802;28;20423;-66
2022/08/08 09:51:53;;;;;;;5.18;2.30;;;25.50;49.60;;;;;;5052412;28;20033;-67
2022/08/08 09:54:26;;;;;;;2.90;2.15;;;25.60;49.90;;;;;;5052736;28;20400;-67
2022/08/08 09:56:54;;;;;;;3.25;2.35;;;25.70;49.00;;;;;;5051422;28;20033;-67
2022/08/08 09:59:28;;;;;;;4.75;1.95;;;25.80;48.20;;;;;;5045337;28;20400;-67
2022/08/08 10:01:57;;;;;;;3.67;2.40;;;25.90;48.80;;;;;;5051289;28;20028;-67
2022/08/08 10:04:26;;;;;;;2.95;2.10;;;26.00;49.60;;;;;;5051752;28;20381;-68
2022/08/08 10:06:52;;;;;;;3.78;2.20;;;26.10;50.10;;;;;;5052437;28;20562;-67
2022/08/08 10:09:32;;;;;;;4.45;2.33;;;26.20;50.20;;;;;;5052230;28;20025;-67
2022/08/08 10:12:03;;;;;;;4.15;2.85;;;26.20;48.70;;;;;;5052227;28;20020;-65
2022/08/08 10:14:33;;;;;;;2.95;2.10;;;26.30;49.50;;;;;;5052017;28;20388;-65
2022/08/08 10:17:01;;;;;;;4.07;2.00;;;26.40;49.70;;;;;;5051641;28;20502;-64
2022/08/08 10:19:35;;;;;;;3.28;2.10;;;26.40;49.60;;;;;;5051167;28;20032;-67
2022/08/08 10:22:03;;;;;;;3.83;2.25;;;26.50;50.50;;;;;;5051597;28;20387;-65
2022/08/08 10:24:30;;;;;;;5.28;2.53;;;26.60;49.60;;;;;;5052106;28;20543;-65
2022/08/08 10:27:00;;;;;;;3.75;2.42;;;26.70;49.80;;;;;;5050813;28;20098;-66
2022/08/08 10:29:47;;;;;;;4.55;2.53;;;26.70;49.50;;;;;;5050764;28;20025;-65
2022/08/08 10:32:36;;;;;;;4.88;3.38;;;26.80;49.00;;;;;;5051736;28;20036;-65
2022/08/08 10:35:14;;;;;;;10.73;6.55;;;26.90;48.30;;;;;;5053267;28;20518;-65
2022/08/08 10:37:53;;;;;;;7.25;5.05;;;27.00;48.80;;;;;;5045808;28;20052;-66
2022/08/08 10:40:20;;;;;;;3.70;2.40;;;27.10;48.70;;;;;;5051257;28;20512;-65
2022/08/08 10:42:54;;;;;;;4.75;2.35;;;27.20;48.10;;;;;;5049183;28;20041;-66
2022/08/08 10:45:20;;;;;;;4.97;2.42;;;27.30;47.60;;;;;;5051166;28;20033;-65
2022/08/08 10:47:52;;;;;;;4.97;2.65;;;27.30;47.10;;;;;;5051793;28;20025;-66
2022/08/08 10:50:18;;;;;;;3.15;2.10;;;27.40;46.00;;;;;;5049837;28;20028;-66
2022/08/08 10:52:44;;;;;;;3.30;2.30;;;27.30;45.90;;;;;;5050260;28;20029;-66
2022/08/08 10:55:18;;;;;;;3.65;2.05;;;27.30;46.30;;;;;;5049792;28;20086;-65
2022/08/08 10:58:02;;;;;;;4.60;2.03;;;27.20;45.60;;;;;;5046616;28;20418;-66
2022/08/08 11:00:28;;;;;;;5.03;2.60;;;27.20;45.30;;;;;;5046328;28;20094;-66
2022/08/08 11:02:55;;;;;;;4.78;2.38;;;27.20;46.00;;;;;;5050367;28;20025;-66
2022/08/08 11:05:22;;;;;;;4.30;2.35;;;27.10;46.10;;;;;;5048642;28;20053;-66
2022/08/08 11:07:53;;;;;;;6.40;2.53;;;27.10;45.90;;;;;;5050537;28;20047;-66
2022/08/08 11:10:21;;;;;;;2.88;2.40;;;26.90;45.30;;;;;;5048839;28;20476;-65
2022/08/08 11:12:58;;;;;;;4.00;2.30;;;26.80;45.50;;;;;;5052027;28;20032;-66
2022/08/08 11:15:27;;;;;;;3.03;2.33;;;26.70;45.20;;;;;;5049921;28;20043;-66
2022/08/08 11:17:53;;;;;;;3.92;2.15;;;26.60;45.50;;;;;;5050424;28;20033;-65
2022/08/08 11:20:21;;;;;;;5.13;2.30;;;26.50;45.40;;;;;;5050630;28;20487;-65
2022/08/08 11:22:50;;;;;;;3.65;2.47;;;26.50;45.80;;;;;;5050641;28;20083;-65
2022/08/08 11:25:16;;;;;;;5.10;2.67;;;26.40;45.90;;;;;;5050405;28;20032;-65
2022/08/08 11:27:45;;;;;;;5.57;2.38;;;26.40;46.00;;;;;;5052193;28;20108;-65
2022/08/08 11:30:11;;;;;;;7.25;2.75;;;26.40;46.00;;;;;;5049496;28;20094;-65
2022/08/08 11:32:41;;;;;;;4.78;2.20;;;26.40;46.60;;;;;;5050385;28;20492;-66
2022/08/08 11:35:12;;;;;;;5.30;2.50;;;26.40;46.00;;;;;;5049040;28;20067;-65
2022/08/08 11:37:41;;;;;;;4.63;2.25;;;26.30;46.20;;;;;;5050185;28;20067;-66
2022/08/08 11:40:09;;;;;;;2.90;2.20;;;26.30;46.10;;;;;;5050633;28;20088;-66
2022/08/08 11:42:36;;;;;;;5.72;2.83;;;26.30;45.80;;;;;;5049916;28;20082;-65
2022/08/08 11:45:05;;;;;;;4.25;2.67;;;26.40;46.70;;;;;;5050691;28;20392;-65
2022/08/08 11:47:32;;;;;;;3.35;2.33;;;26.50;46.50;;;;;;5049975;28;20100;-65
2022/08/08 11:50:01;;;;;;;4.03;2.22;;;26.70;47.50;;;;;;5050526;28;20056;-65
2022/08/08 11:52:29;;;;;;;3.80;2.45;;;26.80;47.60;;;;;;5046865;28;20096;-65
2022/08/08 11:54:57;;;;;;;3.97;2.38;;;26.90;46.50;;;;;;5049553;28;20084;-66
2022/08/08 11:57:29;;;;;;;6.22;3.22;;;27.00;45.80;;;;;;5041774;28;20025;-65
2022/08/08 11:59:56;;;;;;;3.05;2.15;;;27.00;45.90;;;;;;5050047;28;20044;-66
2022/08/08 12:02:25;;;;;;;5.38;2.50;;;27.10;45.60;;;;;;5048587;28;20021;-65
2022/08/08 12:05:10;;;;;;;3.35;2.17;;;27.20;45.70;;;;;;5048144;28;20045;-66
2022/08/08 12:07:54;;;;;;;4.45;2.55;;;27.30;45.60;;;;;;5048636;28;20029;-65
2022/08/08 12:10:26;;;;;;;3.45;2.25;;;27.40;46.30;;;;;;5046849;28;20029;-65
2022/08/08 12:13:04;;;;;;;4.28;2.35;;;27.40;46.40;;;;;;5049700;28;20468;-66
2022/08/08 12:15:34;;;;;;;3.50;2.60;;;27.40;47.00;;;;;;5049229;28;20037;-66
2022/08/08 12:18:11;;;;;;;4.60;2.38;;;27.40;47.50;;;;;;5051402;28;20021;-66
2022/08/08 12:20:38;;;;;;;6.50;2.40;;;27.40;46.80;;;;;;5050940;28;20094;-66
2022/08/08 12:23:04;;;;;;;4.22;2.70;;;27.40;46.60;;;;;;5022554;28;20072;-66
2022/08/08 12:25:32;;;;;;;4.32;2.55;;;27.40;46.40;;;;;;5035176;28;20025;-65
2022/08/08 12:28:14;;;;;;;3.85;2.60;;;27.50;46.20;;;;;;5050705;28;20486;-65
2022/08/08 12:30:44;;;;;;;3.28;1.92;;;27.60;46.50;;;;;;5030337;28;20041;-65
2022/08/08 12:33:49;;;;;;;3.85;2.10;;;27.70;45.70;;;;;;5037475;28;20304;-65
2022/08/08 12:36:15;;;;;;;4.95;2.30;;;27.80;45.30;;;;;;5039980;28;20130;-65
2022/08/08 12:38:48;;;;;;;3.45;2.40;;;27.90;45.20;;;;;;5049720;28;20075;-65
2022/08/08 12:41:13;;;;;;;4.60;2.40;;;27.90;44.20;;;;;;5050507;28;20033;-65
2022/08/08 12:43:39;;;;;;;3.85;2.20;;;27.80;44.50;;;;;;5049785;28;20773;-65
2022/08/08 12:46:13;;;;;;;3.45;2.28;;;27.70;44.20;;;;;;5049913;28;20087;-65
2022/08/08 12:48:41;;;;;;;4.00;2.28;;;27.60;44.60;;;;;;5049086;28;20033;-65
2022/08/08 12:51:18;;;;;;;5.68;2.40;;;27.50;44.30;;;;;;5049816;28;20121;-65
2022/08/08 12:53:55;;;;;;;3.60;2.28;;;27.40;44.50;;;;;;5042934;28;20396;-65
2022/08/08 12:56:34;;;;;;;5.07;2.42;;;27.40;44.20;;;;;;5041908;28;20029;-66
2022/08/08 12:59:00;;;;;;;4.05;2.50;;;27.30;44.80;;;;;;5047550;28;20108;-66
2022/08/08 13:01:36;;;;;;;4.43;2.28;;;27.30;44.50;;;;;;5050897;28;20021;-66
2022/08/08 13:04:34;;;;;;;6.03;2.90;;;27.20;44.40;;;;;;5049916;28;20028;-65
2022/08/08 13:07:09;;;;;;;3.53;2.30;;;27.10;44.60;;;;;;5042535;28;20045;-65
2022/08/08 13:09:39;;;;;;;4.57;2.65;;;27.10;44.70;;;;;;5050180;28;20075;-65
2022/08/08 13:12:39;;;;;;;5.30;2.35;;;27.10;44.80;;;;;;5051299;28;20056;-65
2022/08/08 13:15:11;;;;;;;5.07;2.72;;;27.00;45.00;;;;;;5048849;28;20112;-65
2022/08/08 13:17:37;;;;;;;5.90;2.67;;;27.00;45.40;;;;;;5050448;28;20032;-65
2022/08/08 13:20:11;;;;;;;5.82;3.08;;;27.00;45.80;;;;;;5050169;28;20076;-65
2022/08/08 13:22:36;;;;;;;6.47;2.65;;;27.10;45.50;;;;;;5051197;28;20472;-65
2022/08/08 13:25:11;;;;;;;5.60;2.75;;;27.20;45.70;;;;;;5042246;28;20037;-65
2022/08/08 13:27:37;;;;;;;3.78;2.72;;;27.20;45.60;;;;;;5050684;28;20025;-65